Time,TemperatureF,DewpointF,PressureIn,WindDirection,WindDirectionDegrees,WindSpeedMPH,WindSpeedGustMPH,Humidity,HourlyPrecipIn,Conditions,Clouds,dailyrainin,SoftwareType,DateUTC
2013-10-11 00:07:00,63.6,61.2,30.00,North,355,0.0,2.0,92,0.00,,,0.00,Weather View 32 v70,2013-10-11 04:07:00,
2013-10-11 00:09:00,63.2,60.8,30.00,North,355,0.0,2.0,92,0.00,,,0.00,Weather View 32 v70,2013-10-11 04:09:00,
2013-10-11 00:19:00,62.9,60.5,29.99,North,355,1.0,2.0,92,0.00,,,0.00,Weather View 32 v70,2013-10-11 04:19:00,
2013-10-11 00:29:00,62.8,60.4,29.99,WNW,298,1.0,2.0,92,0.00,,,0.00,Weather View 32 v70,2013-10-11 04:29:00,
2013-10-11 00:39:00,62.5,60.1,29.99,WNW,298,0.0,2.0,92,0.00,,,0.00,Weather View 32 v70,2013-10-11 04:39:00,
2013-10-11 00:49:00,62.2,59.8,29.99,WNW,298,0.0,2.0,92,0.00,,,0.00,Weather View 32 v70,2013-10-11 04:49:00,
2013-10-11 00:59:00,62.0,59.9,29.99,WNW,298,1.0,2.0,93,0.00,,,0.00,Weather View 32 v70,2013-10-11 04:59:00,
2013-10-11 01:07:00,62.0,59.9,29.99,WNW,298,1.0,2.0,93,0.00,,,0.00,Weather View 32 v70,2013-10-11 05:07:00,
2013-10-11 01:09:00,61.8,59.7,29.99,WNW,298,0.0,2.0,93,0.00,,,0.00,Weather View 32 v70,2013-10-11 05:09:00,
2013-10-11 01:19:00,61.6,59.5,29.99,WNW,298,1.0,2.0,93,0.00,,,0.00,Weather View 32 v70,2013-10-11 05:19:00,
2013-10-11 01:29:00,61.7,59.6,29.98,WNW,298,0.0,2.0,93,0.00,,,0.00,Weather View 32 v70,2013-10-11 05:29:00,
2013-10-11 01:39:00,62.0,60.2,29.98,WNW,298,0.0,2.0,94,0.00,,,0.00,Weather View 32 v70,2013-10-11 05:39:00,
2013-10-11 01:49:00,61.8,59.7,29.98,WNW,298,0.0,2.0,93,0.00,,,0.00,Weather View 32 v70,2013-10-11 05:49:00,
2013-10-11 01:59:00,62.2,60.4,29.98,WNW,298,0.0,2.0,94,0.00,,,0.00,Weather View 32 v70,2013-10-11 05:59:00,
2013-10-11 02:08:00,62.2,60.4,29.98,WNW,298,0.0,2.0,94,0.00,,,0.00,Weather View 32 v70,2013-10-11 06:08:00,
2013-10-11 02:09:00,62.2,60.4,29.98,WNW,298,0.0,1.0,94,0.00,,,0.00,Weather View 32 v70,2013-10-11 06:09:00,
2013-10-11 02:19:00,62.4,60.9,29.98,WNW,298,0.0,1.0,95,0.00,,,0.00,Weather View 32 v70,2013-10-11 06:19:00,
2013-10-11 02:29:00,62.4,60.9,29.98,WNW,298,0.0,1.0,95,0.00,,,0.00,Weather View 32 v70,2013-10-11 06:29:00,
2013-10-11 02:39:00,62.4,60.9,29.97,WNW,298,0.0,1.0,95,0.00,,,0.00,Weather View 32 v70,2013-10-11 06:39:00,
2013-10-11 02:49:00,62.1,60.3,29.97,WNW,298,0.0,1.0,94,0.00,,,0.00,Weather View 32 v70,2013-10-11 06:49:00,
2013-10-11 02:59:00,61.8,60.0,29.97,WNW,298,0.0,1.0,94,0.00,,,0.00,Weather View 32 v70,2013-10-11 06:59:00,
2013-10-11 03:08:00,61.8,60.0,29.97,WNW,298,0.0,1.0,94,0.00,,,0.00,Weather View 32 v70,2013-10-11 07:08:00,
2013-10-11 03:09:00,61.7,60.2,29.97,WNW,298,0.0,0.0,95,0.00,,,0.00,Weather View 32 v70,2013-10-11 07:09:00,
2013-10-11 03:19:00,61.7,60.2,29.98,WNW,298,0.0,0.0,95,0.00,,,0.00,Weather View 32 v70,2013-10-11 07:19:00,
2013-10-11 03:29:00,62.0,60.5,29.98,WNW,298,0.0,0.0,95,0.00,,,0.00,Weather View 32 v70,2013-10-11 07:29:00,
2013-10-11 03:39:00,62.4,61.2,29.97,WNW,298,0.0,0.0,96,0.00,,,0.00,Weather View 32 v70,2013-10-11 07:39:00,
2013-10-11 03:49:00,62.8,61.6,29.98,WNW,298,0.0,0.0,96,0.00,,,0.00,Weather View 32 v70,2013-10-11 07:49:00,
2013-10-11 03:59:00,62.6,61.1,29.97,WNW,298,0.0,0.0,95,0.00,,,0.00,Weather View 32 v70,2013-10-11 07:59:00,
2013-10-11 04:09:00,62.6,61.1,29.97,WNW,298,0.0,0.0,95,0.00,,,0.00,Weather View 32 v70,2013-10-11 08:09:00,
2013-10-11 04:19:00,63.3,62.1,29.97,WNW,298,0.0,0.0,96,0.00,,,0.00,Weather View 32 v70,2013-10-11 08:19:00,
2013-10-11 04:29:00,63.1,61.9,29.97,WNW,298,0.0,0.0,96,0.00,,,0.00,Weather View 32 v70,2013-10-11 08:29:00,
2013-10-11 04:39:00,62.9,61.7,29.97,WNW,298,0.0,0.0,96,0.00,,,0.00,Weather View 32 v70,2013-10-11 08:39:00,
2013-10-11 04:49:00,62.6,61.4,29.97,WNW,298,0.0,0.0,96,0.00,,,0.00,Weather View 32 v70,2013-10-11 08:49:00,
2013-10-11 04:59:00,62.0,60.5,29.97,WNW,298,0.0,0.0,95,0.00,,,0.00,Weather View 32 v70,2013-10-11 08:59:00,
2013-10-11 05:10:00,61.3,59.9,29.97,WNW,298,0.0,0.0,95,0.00,,,0.00,Weather View 32 v70,2013-10-11 09:10:00,
2013-10-11 05:19:00,60.8,59.4,29.97,WNW,298,0.0,0.0,95,0.00,,,0.00,Weather View 32 v70,2013-10-11 09:19:00,
2013-10-11 05:29:00,60.9,59.5,29.97,WNW,298,0.0,0.0,95,0.00,,,0.00,Weather View 32 v70,2013-10-11 09:29:00,
2013-10-11 05:39:00,60.9,59.7,29.98,WNW,298,0.0,0.0,96,0.00,,,0.00,Weather View 32 v70,2013-10-11 09:39:00,
2013-10-11 05:49:00,60.8,59.4,29.98,WNW,298,0.0,0.0,95,0.00,,,0.00,Weather View 32 v70,2013-10-11 09:49:00,
2013-10-11 05:59:00,60.5,59.1,29.99,WNW,298,0.0,0.0,95,0.00,,,0.00,Weather View 32 v70,2013-10-11 09:59:00,
2013-10-11 06:09:00,60.6,59.4,29.99,WNW,298,0.0,0.0,96,0.00,,,0.00,Weather View 32 v70,2013-10-11 10:09:00,
2013-10-11 06:19:00,60.4,59.0,29.99,WNW,298,0.0,0.0,95,0.00,,,0.00,Weather View 32 v70,2013-10-11 10:19:00,
2013-10-11 06:29:00,60.5,59.1,29.99,WNW,298,0.0,0.0,95,0.00,,,0.00,Weather View 32 v70,2013-10-11 10:29:00,
2013-10-11 06:39:00,60.2,58.8,29.99,WNW,298,0.0,0.0,95,0.00,,,0.00,Weather View 32 v70,2013-10-11 10:39:00,
2013-10-11 06:49:00,59.6,58.2,29.99,WNW,298,0.0,0.0,95,0.00,,,0.00,Weather View 32 v70,2013-10-11 10:49:00,
2013-10-11 06:59:00,59.6,58.2,30.00,WNW,298,0.0,0.0,95,0.00,,,0.00,Weather View 32 v70,2013-10-11 10:59:00,
2013-10-11 07:09:00,59.5,58.1,30.00,WNW,298,0.0,0.0,95,0.00,,,0.00,Weather View 32 v70,2013-10-11 11:09:00,
2013-10-11 07:19:00,59.7,58.3,30.01,WNW,298,0.0,0.0,95,0.00,,,0.00,Weather View 32 v70,2013-10-11 11:19:00,
2013-10-11 07:29:00,59.6,58.2,30.01,WNW,298,0.0,0.0,95,0.00,,,0.00,Weather View 32 v70,2013-10-11 11:29:00,
2013-10-11 07:39:00,59.4,58.0,30.01,WNW,298,0.0,0.0,95,0.00,,,0.00,Weather View 32 v70,2013-10-11 11:39:00,
2013-10-11 07:49:00,59.5,58.1,30.01,WNW,298,0.0,0.0,95,0.00,,,0.00,Weather View 32 v70,2013-10-11 11:49:00,
2013-10-11 07:59:00,60.2,58.8,30.01,WNW,298,0.0,0.0,95,0.00,,,0.00,Weather View 32 v70,2013-10-11 11:59:00,
2013-10-11 08:09:00,61.2,59.8,30.02,WNW,298,0.0,0.0,95,0.00,,,0.00,Weather View 32 v70,2013-10-11 12:09:00,
2013-10-11 08:11:00,61.2,59.8,30.02,WNW,298,0.0,0.0,95,0.00,,,0.00,Weather View 32 v70,2013-10-11 12:11:00,
2013-10-11 08:19:00,62.2,60.7,30.02,WNW,298,0.0,0.0,95,0.00,,,0.00,Weather View 32 v70,2013-10-11 12:19:00,
2013-10-11 08:29:00,63.5,62.0,30.02,WNW,298,0.0,0.0,95,0.00,,,0.00,Weather View 32 v70,2013-10-11 12:29:00,
2013-10-11 08:39:00,64.9,63.4,30.02,WNW,298,0.0,0.0,95,0.00,,,0.00,Weather View 32 v70,2013-10-11 12:39:00,
2013-10-11 08:49:00,66.5,65.3,30.02,WNW,298,0.0,0.0,96,0.00,,,0.00,Weather View 32 v70,2013-10-11 12:49:00,
2013-10-11 08:59:00,68.3,67.1,30.03,WNW,298,0.0,0.0,96,0.00,,,0.00,Weather View 32 v70,2013-10-11 12:59:00,
2013-10-11 09:09:00,69.9,68.1,30.03,WNW,298,0.0,0.0,94,0.00,,,0.00,Weather View 32 v70,2013-10-11 13:09:00,
2013-10-11 09:12:00,69.9,68.1,30.03,WNW,298,0.0,0.0,94,0.00,,,0.00,Weather View 32 v70,2013-10-11 13:12:00,
2013-10-11 09:19:00,71.2,68.7,30.03,WNW,298,0.0,0.0,92,0.00,,,0.00,Weather View 32 v70,2013-10-11 13:19:00,
2013-10-11 09:29:00,72.2,68.4,30.04,WNW,298,0.0,0.0,88,0.00,,,0.00,Weather View 32 v70,2013-10-11 13:29:00,
2013-10-11 09:39:00,73.3,68.8,30.04,WNW,298,0.0,0.0,86,0.00,,,0.00,Weather View 32 v70,2013-10-11 13:39:00,
2013-10-11 09:49:00,73.7,68.9,30.04,West,277,0.0,0.0,85,0.00,,,0.00,Weather View 32 v70,2013-10-11 13:49:00,
2013-10-11 09:59:00,74.4,68.9,30.04,WSW,242,0.0,0.0,83,0.00,,,0.00,Weather View 32 v70,2013-10-11 13:59:00,
2013-10-11 10:09:00,74.6,68.4,30.04,SSE,166,0.0,0.0,81,0.00,,,0.00,Weather View 32 v70,2013-10-11 14:09:00,
2013-10-11 10:19:00,74.9,69.4,30.04,SSE,163,0.0,0.0,83,0.00,,,0.00,Weather View 32 v70,2013-10-11 14:19:00,
2013-10-11 10:29:00,75.7,69.1,30.04,SSE,163,0.0,0.0,80,0.00,,,0.00,Weather View 32 v70,2013-10-11 14:29:00,
2013-10-11 10:39:00,76.6,69.9,30.04,SSE,162,0.0,0.0,80,0.00,,,0.00,Weather View 32 v70,2013-10-11 14:39:00,
2013-10-11 10:49:00,76.6,68.4,30.04,ESE,114,0.0,0.0,76,0.00,,,0.00,Weather View 32 v70,2013-10-11 14:49:00,
2013-10-11 10:59:00,77.5,69.3,30.04,SE,144,0.0,0.0,76,0.00,,,0.00,Weather View 32 v70,2013-10-11 14:59:00,
2013-10-11 11:09:00,77.6,69.8,30.04,SSE,150,3.0,5.0,77,0.00,,,0.00,Weather View 32 v70,2013-10-11 15:09:00,
2013-10-11 11:13:00,77.6,69.8,30.04,SSE,150,3.0,5.0,77,0.00,,,0.00,Weather View 32 v70,2013-10-11 15:13:00,
2013-10-11 11:19:00,77.9,68.1,30.03,SSE,149,4.0,5.0,72,0.00,,,0.00,Weather View 32 v70,2013-10-11 15:19:00,
2013-10-11 11:29:00,78.4,67.8,30.03,SE,144,0.0,5.0,70,0.00,,,0.00,Weather View 32 v70,2013-10-11 15:29:00,
2013-10-11 11:39:00,79.5,63.9,30.03,SW,231,2.0,5.0,59,0.00,,,0.00,Weather View 32 v70,2013-10-11 15:39:00,
2013-10-11 11:49:00,79.7,63.1,30.03,South,184,0.0,5.0,57,0.00,,,0.00,Weather View 32 v70,2013-10-11 15:49:00,
2013-10-11 11:59:00,79.2,64.1,30.02,West,271,0.0,5.0,60,0.00,,,0.00,Weather View 32 v70,2013-10-11 15:59:00,
2013-10-11 12:09:00,80.1,63.4,30.02,WSW,238,2.0,5.0,57,0.00,,,0.00,Weather View 32 v70,2013-10-11 16:09:00,
2013-10-11 12:19:00,79.8,64.1,30.02,SSE,164,1.0,5.0,59,0.00,,,0.00,Weather View 32 v70,2013-10-11 16:19:00,
2013-10-11 12:29:00,81.1,63.3,30.02,NNE,17,0.0,7.0,55,0.00,,,0.00,Weather View 32 v70,2013-10-11 16:29:00,
2013-10-11 12:41:00,80.4,62.7,30.01,WNW,290,0.0,7.0,55,0.00,,,0.00,Weather View 32 v70,2013-10-11 16:41:00,
2013-10-11 12:50:00,80.5,64.3,30.01,WNW,289,2.0,8.0,58,0.00,,,0.00,Weather View 32 v70,2013-10-11 16:50:00,
2013-10-11 13:00:00,79.8,63.2,30.01,WNW,289,0.0,8.0,57,0.00,,,0.00,Weather View 32 v70,2013-10-11 17:00:00,
2013-10-11 13:09:00,80.8,64.6,30.00,West,267,0.0,8.0,58,0.00,,,0.00,Weather View 32 v70,2013-10-11 17:09:00,
2013-10-11 13:15:00,80.8,64.6,30.00,West,267,0.0,8.0,58,0.00,,,0.00,Weather View 32 v70,2013-10-11 17:15:00,
2013-10-11 13:20:00,81.2,64.0,30.00,South,173,1.0,8.0,56,0.00,,,0.00,Weather View 32 v70,2013-10-11 17:20:00,
2013-10-11 13:29:00,81.8,63.5,29.99,West,281,1.0,8.0,54,0.00,,,0.00,Weather View 32 v70,2013-10-11 17:29:00,
2013-10-11 13:39:00,82.5,63.6,29.99,WNW,288,0.0,8.0,53,0.00,,,0.00,Weather View 32 v70,2013-10-11 17:39:00,
2013-10-11 13:49:00,82.7,63.2,29.98,SSE,152,0.0,8.0,52,0.00,,,0.00,Weather View 32 v70,2013-10-11 17:49:00,
2013-10-11 13:59:00,82.7,63.2,29.98,WNW,296,0.0,8.0,52,0.00,,,0.00,Weather View 32 v70,2013-10-11 17:59:00,
2013-10-11 14:09:00,81.6,64.3,29.97,West,265,6.0,8.0,56,0.00,,,0.00,Weather View 32 v70,2013-10-11 18:09:00,
2013-10-11 14:15:00,81.6,64.3,29.97,West,265,6.0,8.0,56,0.00,,,0.00,Weather View 32 v70,2013-10-11 18:15:00,
2013-10-11 14:19:00,81.5,62.7,29.97,West,279,1.0,8.0,53,0.00,,,0.00,Weather View 32 v70,2013-10-11 18:19:00,
2013-10-11 14:29:00,80.2,63.0,29.97,West,280,0.0,8.0,56,0.00,,,0.00,Weather View 32 v70,2013-10-11 18:29:00,
2013-10-11 14:39:00,82.1,63.2,29.96,WSW,246,1.0,8.0,53,0.00,,,0.00,Weather View 32 v70,2013-10-11 18:39:00,
2013-10-11 14:49:00,82.5,63.0,29.96,SSE,167,0.0,8.0,52,0.00,,,0.00,Weather View 32 v70,2013-10-11 18:49:00,
2013-10-11 14:59:00,83.1,63.6,29.96,SE,146,0.0,8.0,52,0.00,,,0.00,Weather View 32 v70,2013-10-11 18:59:00,
2013-10-11 15:09:00,83.1,61.9,29.95,SSE,152,1.0,11.0,49,0.00,,,0.00,Weather View 32 v70,2013-10-11 19:09:00,
2013-10-11 15:16:00,83.1,61.9,29.95,SSE,152,1.0,11.0,49,0.00,,,0.00,Weather View 32 v70,2013-10-11 19:16:00,
2013-10-11 15:29:00,82.8,63.9,29.95,WNW,286,6.0,11.0,53,0.00,,,0.00,Weather View 32 v70,2013-10-11 19:29:00,
2013-10-11 15:39:00,83.0,62.9,29.95,WNW,300,0.0,11.0,51,0.00,,,0.00,Weather View 32 v70,2013-10-11 19:39:00,
2013-10-11 15:49:00,83.4,63.3,29.95,ENE,76,1.0,11.0,51,0.00,,,0.00,Weather View 32 v70,2013-10-11 19:49:00,
2013-10-11 15:59:00,83.6,60.6,29.95,West,277,3.0,11.0,46,0.00,,,0.00,Weather View 32 v70,2013-10-11 19:59:00,
2013-10-11 16:09:00,83.5,62.3,29.95,WNW,284,2.0,10.0,49,0.00,,,0.00,Weather View 32 v70,2013-10-11 20:09:00,
2013-10-11 16:16:00,83.5,62.3,29.95,WNW,284,2.0,10.0,49,0.00,,,0.00,Weather View 32 v70,2013-10-11 20:16:00,
2013-10-11 16:19:00,83.2,63.7,29.94,North,0,1.0,9.0,52,0.00,,,0.00,Weather View 32 v70,2013-10-11 20:19:00,
2013-10-11 16:29:00,82.1,62.7,29.94,WSW,254,2.0,9.0,52,0.00,,,0.00,Weather View 32 v70,2013-10-11 20:29:00,
2013-10-11 16:39:00,81.4,63.1,29.94,SSW,200,1.0,7.0,54,0.00,,,0.00,Weather View 32 v70,2013-10-11 20:39:00,
2013-10-11 16:49:00,82.7,63.2,29.94,WNW,303,0.0,6.0,52,0.00,,,0.00,Weather View 32 v70,2013-10-11 20:49:00,
2013-10-11 16:59:00,82.3,62.8,29.94,WNW,289,1.0,8.0,52,0.00,,,0.00,Weather View 32 v70,2013-10-11 20:59:00,
2013-10-11 17:09:00,80.3,62.6,29.94,WSW,237,0.0,8.0,55,0.00,,,0.00,Weather View 32 v70,2013-10-11 21:09:00,
2013-10-11 17:17:00,80.3,62.6,29.94,WSW,237,0.0,8.0,55,0.00,,,0.00,Weather View 32 v70,2013-10-11 21:17:00,
2013-10-11 17:29:00,80.5,64.3,29.94,SSE,164,1.0,8.0,58,0.00,,,0.00,Weather View 32 v70,2013-10-11 21:29:00,
2013-10-11 17:39:00,80.9,63.2,29.94,WNW,300,1.0,8.0,55,0.00,,,0.00,Weather View 32 v70,2013-10-11 21:39:00,
2013-10-11 17:49:00,80.7,65.0,29.94,NW,309,0.0,8.0,59,0.00,,,0.00,Weather View 32 v70,2013-10-11 21:49:00,
2013-10-11 17:59:00,80.0,65.3,29.94,NW,309,0.0,4.0,61,0.00,,,0.00,Weather View 32 v70,2013-10-11 21:59:00,
2013-10-11 18:09:00,79.9,63.7,29.94,WNW,290,0.0,4.0,58,0.00,,,0.00,Weather View 32 v70,2013-10-11 22:09:00,
2013-10-11 18:17:00,79.9,63.7,29.94,WNW,290,0.0,4.0,58,0.00,,,0.00,Weather View 32 v70,2013-10-11 22:17:00,
2013-10-11 18:19:00,78.6,65.4,29.94,WNW,290,0.0,4.0,64,0.00,,,0.00,Weather View 32 v70,2013-10-11 22:19:00,
2013-10-11 18:29:00,77.6,64.9,29.94,WNW,290,0.0,4.0,65,0.00,,,0.00,Weather View 32 v70,2013-10-11 22:29:00,
2013-10-11 18:39:00,76.5,65.1,29.94,WNW,290,0.0,4.0,68,0.00,,,0.00,Weather View 32 v70,2013-10-11 22:39:00,
2013-10-11 18:49:00,75.8,64.4,29.94,WNW,290,0.0,4.0,68,0.00,,,0.00,Weather View 32 v70,2013-10-11 22:49:00,
2013-10-11 18:59:00,75.1,65.0,29.94,WNW,290,0.0,4.0,71,0.00,,,0.00,Weather View 32 v70,2013-10-11 22:59:00,
2013-10-11 19:09:00,73.8,65.0,29.94,WNW,290,0.0,1.0,74,0.00,,,0.00,Weather View 32 v70,2013-10-11 23:09:00,
2013-10-11 19:18:00,73.8,65.0,29.94,WNW,290,0.0,1.0,74,0.00,,,0.00,Weather View 32 v70,2013-10-11 23:18:00,
2013-10-11 19:19:00,72.6,65.3,29.95,WNW,290,0.0,0.0,78,0.00,,,0.00,Weather View 32 v70,2013-10-11 23:19:00,
2013-10-11 19:29:00,71.5,65.3,29.95,WNW,290,0.0,1.0,81,0.00,,,0.00,Weather View 32 v70,2013-10-11 23:29:00,
2013-10-11 19:39:00,70.8,65.4,29.95,WNW,290,0.0,1.0,83,0.00,,,0.00,Weather View 32 v70,2013-10-11 23:39:00,
2013-10-11 19:49:00,70.1,65.0,29.95,WNW,290,0.0,1.0,84,0.00,,,0.00,Weather View 32 v70,2013-10-11 23:49:00,
2013-10-11 19:59:00,69.4,64.3,29.95,WNW,290,0.0,1.0,84,0.00,,,0.00,Weather View 32 v70,2013-10-11 23:59:00,
2013-10-11 20:09:00,69.2,63.8,29.95,WNW,290,0.0,1.0,83,0.00,,,0.00,Weather View 32 v70,2013-10-12 00:09:00,
2013-10-11 20:18:00,69.2,63.8,29.95,WNW,290,0.0,1.0,83,0.00,,,0.00,Weather View 32 v70,2013-10-12 00:18:00,
2013-10-11 20:19:00,68.9,63.8,29.95,WNW,290,0.0,1.0,84,0.00,,,0.00,Weather View 32 v70,2013-10-12 00:19:00,
2013-10-11 20:29:00,68.1,63.7,29.96,WNW,290,0.0,0.0,86,0.00,,,0.00,Weather View 32 v70,2013-10-12 00:29:00,
2013-10-11 20:39:00,67.5,63.1,29.96,WNW,290,0.0,0.0,86,0.00,,,0.00,Weather View 32 v70,2013-10-12 00:39:00,
2013-10-11 20:49:00,67.2,62.9,29.96,WNW,290,0.0,0.0,86,0.00,,,0.00,Weather View 32 v70,2013-10-12 00:49:00,
2013-10-11 20:59:00,66.6,62.3,29.96,WNW,290,0.0,0.0,86,0.00,,,0.00,Weather View 32 v70,2013-10-12 00:59:00,
2013-10-11 21:09:00,66.3,62.3,29.96,WNW,290,0.0,0.0,87,0.00,,,0.00,Weather View 32 v70,2013-10-12 01:09:00,
2013-10-11 21:19:00,66.3,62.3,29.96,WNW,290,0.0,0.0,87,0.00,,,0.00,Weather View 32 v70,2013-10-12 01:19:00,
2013-10-11 21:29:00,66.0,62.0,29.97,WNW,290,0.0,0.0,87,0.00,,,0.00,Weather View 32 v70,2013-10-12 01:29:00,
2013-10-11 21:39:00,65.7,62.0,29.97,WNW,290,0.0,0.0,88,0.00,,,0.00,Weather View 32 v70,2013-10-12 01:39:00,
2013-10-11 21:49:00,65.3,62.0,29.97,WNW,290,0.0,0.0,89,0.00,,,0.00,Weather View 32 v70,2013-10-12 01:49:00,
2013-10-11 21:59:00,64.8,61.8,29.98,WNW,290,0.0,0.0,90,0.00,,,0.00,Weather View 32 v70,2013-10-12 01:59:00,
2013-10-11 22:09:00,64.8,61.8,29.98,WNW,290,0.0,0.0,90,0.00,,,0.00,Weather View 32 v70,2013-10-12 02:09:00,
2013-10-11 22:19:00,64.8,61.8,29.98,WNW,290,0.0,0.0,90,0.00,,,0.00,Weather View 32 v70,2013-10-12 02:19:00,
2013-10-11 22:29:00,64.4,61.1,29.98,WNW,290,0.0,0.0,89,0.00,,,0.00,Weather View 32 v70,2013-10-12 02:29:00,
2013-10-11 22:39:00,64.5,61.5,29.98,WNW,290,0.0,0.0,90,0.00,,,0.00,Weather View 32 v70,2013-10-12 02:39:00,
2013-10-11 22:49:00,64.3,61.3,29.98,WNW,290,0.0,0.0,90,0.00,,,0.00,Weather View 32 v70,2013-10-12 02:49:00,
2013-10-11 22:59:00,64.5,61.2,29.99,WNW,290,0.0,1.0,89,0.00,,,0.00,Weather View 32 v70,2013-10-12 02:59:00,
2013-10-11 23:09:00,64.8,61.2,29.99,WNW,290,0.0,1.0,88,0.00,,,0.00,Weather View 32 v70,2013-10-12 03:09:00,
2013-10-11 23:20:00,65.3,61.6,29.99,WNW,290,0.0,1.0,88,0.00,,,0.00,Weather View 32 v70,2013-10-12 03:20:00,
2013-10-11 23:29:00,65.5,61.8,29.99,WNW,290,0.0,1.0,88,0.00,,,0.00,Weather View 32 v70,2013-10-12 03:29:00,
2013-10-11 23:40:00,65.4,61.7,29.98,WNW,290,0.0,1.0,88,0.00,,,0.00,Weather View 32 v70,2013-10-12 03:40:00,
2013-10-11 23:49:00,65.0,61.3,29.98,WNW,290,0.0,1.0,88,0.00,,,0.00,Weather View 32 v70,2013-10-12 03:49:00,
2013-10-11 23:59:00,64.7,61.4,29.98,WNW,290,0.0,0.0,89,0.00,,,0.00,Weather View 32 v70,2013-10-12 03:59:00,